Flight Track Log - Related Links

Times and Time Zones

All times are in EDT time to prevent confusion due to time zone crossing. See the GJS3710 flight status page for this flight to view local times or setup timezone preferences in your user account.

Time Position Orientation Groundspeed Altitude Reporting Facility
EDT Latitude Longitude Course Direction KTS MPH feet Rate Location/Type
Tue 07:10:10 PM 38.7333 -90.2833 26° Northeast 185 213 3,800  Level Gateway TRACON
Tue 07:11:10 PM 38.8000 -90.2500 21° North 292 336 5,600 1,075 Climbing Gateway TRACON
Tue 07:12:24 PM 38.8761 -90.1994 27° Northeast 287 330 6,200 1,809 Climbing Kansas Center
Tue 07:13:26 PM 38.9672 -90.1511 22° Northeast 295 339 9,700 2,516 Climbing Kansas Center
Tue 07:14:28 PM 39.0494 -90.1072 23° Northeast 316 364 11,400 2,081 Climbing Kansas Center
Tue 07:15:00 PM 39.4113 -89.9338 26° Northeast  Level FlightAware
Tue 07:15:30 PM 39.1419 -90.0569 23° Northeast 351 404 14,000  Level Kansas Center
Tue 07:16:32 PM 39.2372 -90.0056 23° Northeast 367 422 15,800 1,839 Climbing Kansas Center
Tue 07:17:34 PM 39.3378 -89.9503 23° Northeast 386 444 17,800 1,984 Climbing Kansas Center
Tue 07:18:36 PM 39.4406 -89.8939 23° Northeast 397 457 19,900 1,548 Climbing Kansas Center
Tue 07:19:38 PM 39.5664 -89.8256 23° Northeast 408 470 21,000 532 Climbing Kansas Center
Tue 07:20:40 PM 39.6758 -89.7661 23° Northeast 422 486 21,000  Level Kansas Center
Tue 07:21:42 PM 39.7728 -89.7117 23° Northeast 424 488 21,000  Level Kansas Center
Tue 07:22:44 PM 39.8961 -89.6217 29° Northeast 426 490 21,000  Level Kansas Center
Tue 07:23:13 PM 39.9344 -89.5872 35° Northeast 434 499 21,000  Level Chicago Center
Tue 07:24:15 PM 40.0303 -89.4964 36° Northeast 430 495 21,000  Level Chicago Center
Tue 07:25:17 PM 40.1281 -89.4033 36° Northeast 436 502 21,000  Level Chicago Center
Tue 07:26:19 PM 40.2447 -89.2917 36° Northeast 435 501 21,000  Level Chicago Center
Tue 07:27:22 PM 40.3403 -89.1997 36° Northeast 431 496 21,000  Level Chicago Center
Tue 07:28:24 PM 40.4358 -89.1083 36° Northeast 427 491 21,000  Level Chicago Center
Tue 07:29:26 PM 40.5297 -89.0178 36° Northeast 423 487 21,000  Level Chicago Center
Tue 07:30:28 PM 40.6256 -88.9250 36° Northeast 428 493 21,000  Level Chicago Center
Tue 07:31:30 PM 40.7269 -88.8233 37° Northeast 412 474 21,000  Level Chicago Center
Tue 07:32:32 PM 40.8100 -88.7444 36° Northeast 373 429 21,000  Level Chicago Center
Tue 07:33:34 PM 40.9108 -88.7219 10° North 374 430 21,000  Level Chicago Center
Tue 07:34:36 PM 41.0097 -88.7833 335° Northwest 363 418 21,000  Level Chicago Center
Tue 07:35:38 PM 41.0567 -88.9039 297° West 365 420 21,000 -387 Level Chicago Center
Tue 07:36:40 PM 41.1506 -88.9431 343° North 371 427 20,200 -1,452 Descending Chicago Center
Tue 07:37:42 PM 41.2475 -88.9061 16° North 368 423 18,000 -2,129 Descending Chicago Center
Tue 07:38:44 PM 41.3331 -88.8347 32° Northeast 363 418 15,800 -2,032 Descending Chicago Center
Tue 07:39:46 PM 41.4247 -88.7622 31° Northeast 381 438 13,800 -2,129 Descending Chicago Center
Tue 07:40:48 PM 41.5247 -88.6631 37° Northeast 373 429 11,400 -1,355 Descending Chicago Center
Tue 07:41:50 PM 41.5911 -88.5514 51° Northeast 383 441 11,000 -339 Descending Chicago Center
Tue 07:42:52 PM 41.6586 -88.4411 51° Northeast 382 440 10,700 -484 Descending Chicago Center
Tue 07:43:54 PM 41.7281 -88.3281 51° Northeast 390 449 10,000 -581 Descending Chicago Center
Tue 07:44:56 PM 41.7883 -88.2275 51° Northeast 354 407 9,500 -1,065 Descending Chicago Center
Tue 07:45:58 PM 41.8444 -88.1356 51° Northeast 317 365 7,800 -1,500 Descending Chicago Center
Tue 07:46:36 PM 41.9000 -88.1000 25° Northeast 311 358 7,000 -485 Descending Chicago TRACON
Tue 07:47:37 PM 41.9833 -88.1000 360° North 281 323 7,000 -425 Level Chicago TRACON
Tue 07:48:43 PM 42.0500 -88.1333 340° North 241 277 6,100 -897 Descending Chicago TRACON
Tue 07:49:04 PM 42.0653 -88.1486 323° Northwest 249 287 5,700 -1,373 Descending Chicago Center
Tue 07:50:06 PM 42.1314 -88.1258 14° North 276 318 4,200 -1,306 Descending Chicago Center
Tue 07:51:08 PM 42.1208 -88.0664 103° East 220 253 3,000 -791 Descending Chicago Center
Tue 07:51:37 PM 42.1000 -88.0500 150° Southeast 159 183 3,000  Level Chicago TRACON

Login

Don't have an account? Register now (free) for customized features, flight alerts, and more!